createdAt,value
2019-06-10T00:02:16.210Z,99846.89
2019-06-10T00:04:52.280Z,99844.33
2019-06-10T00:07:28.343Z,99832.84
2019-06-10T00:10:07.464Z,99835.82
2019-06-10T00:12:43.520Z,99832.41
2019-06-10T00:15:21.380Z,99829.01
2019-06-10T00:18:18.993Z,99825.60
2019-06-10T00:20:35.387Z,99829.58
2019-06-10T00:23:12.485Z,99819.09
2019-06-10T00:25:51.409Z,99823.95
2019-06-10T00:28:26.745Z,99817.00
2019-06-10T00:31:03.961Z,99813.19
2019-06-10T00:33:41.381Z,99805.23
2019-06-10T00:36:17.578Z,99798.58
2019-06-10T00:38:53.535Z,99798.58
2019-06-10T00:41:31.452Z,99804.28
2019-06-10T00:44:08.400Z,99801.02
2019-06-10T00:46:45.504Z,99801.45
2019-06-10T00:49:21.564Z,99799.90
2019-06-10T00:51:57.620Z,99796.52
2019-06-10T00:54:34.695Z,99790.42
2019-06-10T00:57:12.375Z,99792.70
2019-06-10T00:59:50.664Z,99786.61
2019-06-10T01:02:26.162Z,99781.51
2019-06-10T01:05:03.089Z,99777.39
2019-06-10T01:07:41.442Z,99777.39
2019-06-10T01:10:17.505Z,99774.99
2019-06-10T01:12:53.568Z,99774.58
2019-06-10T01:15:31.165Z,99769.62
2019-06-10T01:18:24.824Z,99762.13
2019-06-10T01:20:45.635Z,99755.86
2019-06-10T01:23:21.978Z,99765.26
2019-06-10T01:26:01.349Z,99762.83
2019-06-10T01:28:36.665Z,99761.01
2019-06-10T01:31:17.589Z,99759.55
2019-06-10T01:33:51.298Z,99761.27
2019-06-10T01:36:27.402Z,99752.47
2019-06-10T01:39:04.497Z,99759.55
2019-06-10T01:41:40.913Z,99757.56
2019-06-10T01:44:17.732Z,99759.25
2019-06-10T01:46:53.800Z,99762.39
2019-06-10T01:49:30.750Z,99756.87
2019-06-10T01:52:07.258Z,99756.44
2019-06-10T01:54:43.409Z,99752.43
2019-06-10T01:57:21.242Z,99756.11
2019-06-10T01:59:57.056Z,99756.89
2019-06-10T02:02:35.158Z,99756.41
2019-06-10T02:05:14.637Z,99758.09
2019-06-10T02:07:51.522Z,99757.09
2019-06-10T02:10:27.251Z,99754.66
2019-06-10T02:13:03.423Z,99759.83
2019-06-10T02:15:41.033Z,99749.20
2019-06-10T02:18:18.058Z,99746.52
2019-06-10T02:20:54.108Z,99748.52
2019-06-10T02:23:31.393Z,99748.52
2019-06-10T02:26:07.633Z,99743.67
2019-06-10T02:28:43.541Z,99736.87
2019-06-10T02:31:29.100Z,99736.23
2019-06-10T02:33:57.404Z,99733.53
2019-06-10T02:36:36.821Z,99733.06
2019-06-10T02:39:16.652Z,99734.63
2019-06-10T02:41:49.323Z,99735.25
2019-06-10T02:44:32.651Z,99732.31
2019-06-10T02:47:03.533Z,99724.27
2019-06-10T02:49:56.461Z,99722.98
2019-06-10T02:52:22.993Z,99711.98
2019-06-10T02:54:57.544Z,99718.58
2019-06-10T02:57:39.659Z,99711.04
2019-06-10T03:00:20.801Z,99712.90
2019-06-10T03:02:52.954Z,99707.16
2019-06-10T03:05:35.210Z,99704.77
2019-06-10T03:08:05.502Z,99706.23
2019-06-10T03:10:44.275Z,99703.59
2019-06-10T03:13:19.745Z,99709.06
2019-06-10T03:16:02.959Z,99709.88
2019-06-10T03:18:38.974Z,99694.35
2019-06-10T03:21:15.936Z,99696.22
2019-06-10T03:23:53.152Z,99700.07
2019-06-10T03:26:29.090Z,99690.10
2019-06-10T03:29:05.011Z,99693.33
2019-06-10T03:31:46.435Z,99694.13
2019-06-10T03:34:23.234Z,99698.86
2019-06-10T03:36:56.271Z,99699.86
2019-06-10T03:39:32.337Z,99691.97
2019-06-10T03:42:09.636Z,99697.02
2019-06-10T03:44:47.787Z,99694.03
2019-06-10T03:47:24.373Z,99684.53
2019-06-10T03:50:03.256Z,99687.28
2019-06-10T03:52:39.211Z,99684.72
2019-06-10T03:55:17.236Z,99678.30
2019-06-10T03:57:53.676Z,99680.31
2019-06-10T04:00:29.738Z,99673.57
2019-06-10T04:03:06.605Z,99676.30
2019-06-10T04:05:46.876Z,99669.47
2019-06-10T04:08:28.081Z,99663.03
2019-06-10T04:11:04.004Z,99668.97
2019-06-10T04:13:39.914Z,99659.77
2019-06-10T04:16:15.830Z,99654.86
2019-06-10T04:18:53.474Z,99654.63
2019-06-10T04:21:29.665Z,99644.25
2019-06-10T04:24:05.931Z,99648.15
2019-06-10T04:26:43.462Z,99649.20
2019-06-10T04:29:22.576Z,99649.59
2019-06-10T04:31:58.004Z,99644.56
2019-06-10T04:34:34.020Z,99645.13
2019-06-10T04:37:12.339Z,99642.06
2019-06-10T04:39:47.546Z,99642.91
2019-06-10T04:42:25.703Z,99640.73
2019-06-10T04:45:03.217Z,99635.44
2019-06-10T04:47:39.975Z,99639.52
2019-06-10T04:50:24.945Z,99634.13
2019-06-10T04:52:53.938Z,99642.33
2019-06-10T04:55:29.894Z,99638.09
2019-06-10T04:58:05.856Z,99644.88
2019-06-10T05:00:42.866Z,99648.89
2019-06-10T05:03:18.993Z,99654.81
2019-06-10T05:05:56.075Z,99649.23
2019-06-10T05:08:33.836Z,99652.17
2019-06-10T05:11:10.036Z,99641.45
2019-06-10T05:13:45.997Z,99639.70
2019-06-10T05:16:27.016Z,99635.77
2019-06-10T05:19:03.616Z,99633.16
2019-06-10T05:21:38.588Z,99631.55
2019-06-10T05:24:14.641Z,99635.11
2019-06-10T05:26:52.561Z,99631.89
2019-06-10T05:29:29.553Z,99628.17
2019-06-10T05:32:06.287Z,99628.77
2019-06-10T05:34:43.721Z,99622.99
2019-06-10T05:37:21.286Z,99609.66
2019-06-10T05:39:57.653Z,99615.95
2019-06-10T05:42:36.149Z,99618.27
2019-06-10T05:45:12.693Z,99620.87
2019-06-10T05:47:48.688Z,99625.19
2019-06-10T05:50:25.257Z,99617.20
2019-06-10T05:53:02.596Z,99625.54
2019-06-10T05:55:38.609Z,99629.47
2019-06-10T05:58:14.555Z,99631.56
2019-06-10T06:00:53.011Z,99628.17
2019-06-10T06:03:28.315Z,99629.85
2019-06-10T06:06:04.283Z,99623.58
2019-06-10T06:08:42.653Z,99622.19
2019-06-10T06:11:18.348Z,99619.64
2019-06-10T06:13:54.400Z,99621.81
2019-06-10T06:16:32.652Z,99612.61
2019-06-10T06:19:08.046Z,99615.61
2019-06-10T06:21:47.587Z,99614.54
2019-06-10T06:24:22.089Z,99618.20
2019-06-10T06:26:58.169Z,99612.67
2019-06-10T06:29:36.575Z,99609.73
2019-06-10T06:32:13.207Z,99598.38
2019-06-10T06:34:49.421Z,99599.77
2019-06-10T06:37:26.791Z,99598.36
2019-06-10T06:40:03.002Z,99599.08
2019-06-10T06:42:39.126Z,99594.20
2019-06-10T06:45:16.550Z,99594.11
2019-06-10T06:47:52.867Z,99582.61
2019-06-10T06:50:30.174Z,99581.45
2019-06-10T06:53:21.341Z,99575.44
2019-06-10T06:55:45.062Z,99573.05
2019-06-10T06:58:23.023Z,99568.69
2019-06-10T07:01:08.367Z,99571.01
2019-06-10T07:03:38.574Z,99568.61
2019-06-10T07:06:15.965Z,99564.34
2019-06-10T07:09:04.274Z,99562.89
2019-06-10T07:11:34.586Z,99556.84
2019-06-10T07:14:13.394Z,99556.50
2019-06-10T07:16:52.812Z,99554.45
2019-06-10T07:19:28.222Z,99550.09
2019-06-10T07:22:12.227Z,99541.34
2019-06-10T07:24:46.880Z,99543.47
2019-06-10T07:27:19.675Z,99539.73
2019-06-10T07:29:55.642Z,99538.33
2019-06-10T07:32:34.272Z,99539.17
2019-06-10T07:35:09.771Z,99539.22
2019-06-10T07:37:46.150Z,99531.07
2019-06-10T07:40:22.430Z,99532.55
2019-06-10T07:42:58.485Z,99528.80
2019-06-10T07:45:37.791Z,99518.52
2019-06-10T07:48:12.286Z,99511.16
2019-06-10T07:50:48.413Z,99506.15
2019-06-10T07:53:24.481Z,99513.50
2019-06-10T07:56:02.924Z,99502.66
2019-06-10T07:58:38.843Z,99506.64
2019-06-10T08:01:15.819Z,99498.47
2019-06-10T08:03:52.725Z,99503.31
2019-06-10T08:06:28.950Z,99502.25
2019-06-10T08:09:06.525Z,99499.93
2019-06-10T08:11:46.725Z,99500.59
2019-06-10T08:14:22.247Z,99499.11
2019-06-10T08:16:58.933Z,99489.02
2019-06-10T08:19:40.042Z,99497.42
2019-06-10T08:22:17.239Z,99492.38
2019-06-10T08:24:52.369Z,99491.55
2019-06-10T08:27:28.175Z,99490.72
2019-06-10T08:30:18.567Z,99486.08
2019-06-10T08:32:46.844Z,99487.75
2019-06-10T08:35:37.656Z,99492.79
2019-06-10T08:37:59.289Z,99485.84
2019-06-10T08:40:36.318Z,99483.75
2019-06-10T08:43:13.295Z,99479.73
2019-06-10T08:45:49.385Z,99487.47
2019-06-10T08:48:25.353Z,99488.73
2019-06-10T08:51:03.258Z,99482.39
2019-06-10T08:53:44.193Z,99478.39
2019-06-10T08:56:17.829Z,99484.30
2019-06-10T08:58:54.247Z,99477.50
2019-06-10T09:01:31.082Z,99475.39
2019-06-10T09:04:08.164Z,99478.94
2019-06-10T09:06:48.779Z,99474.30
2019-06-10T09:09:22.622Z,99475.13
2019-06-10T09:11:58.690Z,99472.81
2019-06-10T09:14:34.639Z,99480.80
2019-06-10T09:17:12.548Z,99477.48
2019-06-10T09:19:51.247Z,99477.48
2019-06-10T09:22:26.661Z,99478.05
2019-06-10T09:25:03.089Z,99471.12
2019-06-10T09:27:42.573Z,99477.61
2019-06-10T09:30:19.077Z,99478.22
2019-06-10T09:32:56.820Z,99483.43
2019-06-10T09:35:32.736Z,99476.67
2019-06-10T09:38:08.807Z,99470.56
2019-06-10T09:40:59.025Z,99478.39
2019-06-10T09:43:28.087Z,99468.06
2019-06-10T09:46:04.237Z,99476.05
2019-06-10T09:48:46.034Z,99463.15
2019-06-10T09:51:18.724Z,99470.74
2019-06-10T09:54:03.167Z,99453.61
2019-06-10T09:56:33.117Z,99461.14
2019-06-10T09:59:12.588Z,99458.81
2019-06-10T10:01:52.513Z,99452.67
2019-06-10T10:04:26.394Z,99453.01
2019-06-10T10:07:03.182Z,99449.41
2019-06-10T10:09:42.107Z,99455.09
2019-06-10T10:12:17.474Z,99453.72
2019-06-10T10:14:56.153Z,99447.78
2019-06-10T10:17:33.374Z,99438.25
2019-06-10T10:20:09.401Z,99426.47
2019-06-10T10:22:46.071Z,99435.66
2019-06-10T10:25:23.591Z,99435.68
2019-06-10T10:27:59.709Z,99435.25
2019-06-10T10:30:35.688Z,99422.12
2019-06-10T10:33:12.852Z,99422.89
2019-06-10T10:35:49.314Z,99426.03
2019-06-10T10:38:27.946Z,99428.68
2019-06-10T10:41:04.791Z,99430.92
2019-06-10T10:43:43.732Z,99425.04
2019-06-10T10:46:19.299Z,99429.63
2019-06-10T10:48:56.635Z,99429.16
2019-06-10T10:51:32.787Z,99430.24
2019-06-10T10:54:22.417Z,99421.69
2019-06-10T10:56:49.196Z,99412.77
2019-06-10T10:59:24.712Z,99410.77
2019-06-10T11:02:02.369Z,99416.27
2019-06-10T11:04:42.691Z,99408.10
2019-06-10T11:07:19.082Z,99409.22
2019-06-10T11:09:56.675Z,99406.72
2019-06-10T11:12:34.796Z,99408.13
2019-06-10T11:15:13.675Z,99407.96
2019-06-10T11:17:49.509Z,99403.77
2019-06-10T11:20:25.568Z,99404.04
2019-06-10T11:23:02.970Z,99395.69
2019-06-10T11:25:39.120Z,99398.13
2019-06-10T11:28:15.082Z,99392.72
2019-06-10T11:30:56.364Z,99393.83
2019-06-10T11:33:28.901Z,99379.89
2019-06-10T11:36:06.229Z,99383.31
2019-06-10T11:38:42.592Z,99386.61
2019-06-10T11:41:18.967Z,99384.21
2019-06-10T11:43:57.759Z,99388.41
2019-06-10T11:46:33.212Z,99387.70
2019-06-10T11:49:09.285Z,99382.20
2019-06-10T11:51:45.251Z,99384.22
2019-06-10T11:54:23.993Z,99386.52
2019-06-10T11:56:59.955Z,99392.23
2019-06-10T11:59:36.174Z,99384.73
2019-06-10T12:02:13.355Z,99379.23
2019-06-10T12:04:51.097Z,99376.84
2019-06-10T12:07:27.227Z,99365.94
2019-06-10T12:10:04.215Z,99363.89
2019-06-10T12:12:40.271Z,99355.91
2019-06-10T12:15:16.875Z,99343.22
2019-06-10T12:18:01.782Z,99349.67
2019-06-10T12:20:33.382Z,99346.13
2019-06-10T12:23:09.613Z,99335.38
2019-06-10T12:25:47.893Z,99348.77
2019-06-10T12:28:23.268Z,99345.67
2019-06-10T12:31:02.009Z,99343.38
2019-06-10T12:33:37.033Z,99333.34
2019-06-10T12:36:14.114Z,99335.66
2019-06-10T12:38:58.276Z,99331.45
2019-06-10T12:41:32.644Z,99338.73
2019-06-10T12:44:07.909Z,99339.42
2019-06-10T12:46:44.191Z,99337.28
2019-06-10T12:49:20.142Z,99337.76
2019-06-10T12:51:57.397Z,99336.29
2019-06-10T12:54:33.476Z,99333.06
2019-06-10T12:57:09.445Z,99330.70
2019-06-10T12:59:45.510Z,99328.66
2019-06-10T13:02:27.829Z,99330.80
2019-06-10T13:04:59.782Z,99326.16
2019-06-10T13:07:42.879Z,99320.22
2019-06-10T13:10:22.571Z,99311.00
2019-06-10T13:13:00.134Z,99317.20
2019-06-10T13:15:36.893Z,99310.26
2019-06-10T13:18:19.011Z,99311.42
2019-06-10T13:20:50.458Z,99300.32
2019-06-10T13:23:31.969Z,99289.78
2019-06-10T13:26:10.791Z,99287.25
2019-06-10T13:28:44.450Z,99287.48
2019-06-10T13:31:23.362Z,99290.23
2019-06-10T13:34:03.857Z,99282.58
2019-06-10T13:36:37.157Z,99281.29
2019-06-10T13:39:13.604Z,99278.54
2019-06-10T13:41:49.797Z,99262.72
2019-06-10T13:44:25.848Z,99264.81
2019-06-10T13:47:08.134Z,99262.19
2019-06-10T13:49:39.796Z,99260.86
2019-06-10T13:52:16.909Z,99262.67
2019-06-10T13:54:53.147Z,99248.03
2019-06-10T13:57:29.078Z,99240.28
2019-06-10T14:00:12.378Z,99241.83
2019-06-10T14:02:48.599Z,99240.61
2019-06-10T14:05:24.755Z,99241.91
2019-06-10T14:08:05.452Z,99243.58
2019-06-10T14:10:39.122Z,99244.27
2019-06-10T14:13:15.599Z,99240.26
2019-06-10T14:15:53.429Z,99243.61
2019-06-10T14:18:29.291Z,99237.17
2019-06-10T14:21:09.222Z,99238.69
2019-06-10T14:23:43.053Z,99238.55
2019-06-10T14:26:34.529Z,99235.80
2019-06-10T14:28:56.591Z,99238.45
2019-06-10T14:31:40.479Z,99220.80
2019-06-10T14:34:16.264Z,99225.30
2019-06-10T14:36:49.579Z,99220.75
2019-06-10T14:39:25.564Z,99222.53
2019-06-10T14:42:04.868Z,99219.30
2019-06-10T14:44:39.148Z,99220.12
2019-06-10T14:47:16.422Z,99226.61
2019-06-10T14:49:53.809Z,99226.45
2019-06-10T14:52:31.989Z,99221.20
2019-06-10T14:55:09.196Z,99213.69
2019-06-10T14:57:46.303Z,99212.15
2019-06-10T15:00:23.667Z,99211.80
2019-06-10T15:03:02.431Z,99214.89
2019-06-10T15:05:37.469Z,99213.23
2019-06-10T15:08:15.453Z,99199.16
2019-06-10T15:10:52.815Z,99210.03
2019-06-10T15:13:28.991Z,99201.63
2019-06-10T15:16:05.049Z,99208.17
2019-06-10T15:18:43.147Z,99210.74
2019-06-10T15:21:19.419Z,99196.22
2019-06-10T15:23:56.478Z,99188.18
2019-06-10T15:26:32.727Z,99200.20
2019-06-10T15:29:11.148Z,99188.13
2019-06-10T15:31:47.407Z,99186.55
2019-06-10T15:34:24.258Z,99182.47
2019-06-10T15:37:02.617Z,99171.69
2019-06-10T15:39:37.892Z,99172.13
2019-06-10T15:42:13.849Z,99168.39
2019-06-10T15:44:55.241Z,99164.84
2019-06-10T15:47:27.393Z,99163.78
2019-06-10T15:50:03.567Z,99162.95
2019-06-10T15:52:39.512Z,99160.94
2019-06-10T15:55:42.460Z,99165.41
2019-06-10T15:57:54.301Z,99153.66
2019-06-10T16:00:30.461Z,99147.16
2019-06-10T16:03:06.416Z,99142.53
2019-06-10T16:05:42.802Z,99138.74
2019-06-10T16:08:19.958Z,99146.77
2019-06-10T16:10:56.334Z,99145.09
2019-06-10T16:13:32.498Z,99147.98
2019-06-10T16:16:08.746Z,99141.98
2019-06-10T16:18:44.977Z,99145.09
2019-06-10T16:21:22.006Z,99136.05
2019-06-10T16:23:58.177Z,99138.88
2019-06-10T16:26:35.531Z,99136.56
2019-06-10T16:29:15.007Z,99131.24
2019-06-10T16:31:54.224Z,99126.53
2019-06-10T16:34:32.374Z,99126.05
2019-06-10T16:37:08.038Z,99121.53
2019-06-10T16:39:43.974Z,99123.78
2019-06-10T16:42:22.962Z,99130.55
2019-06-10T16:44:58.255Z,99131.64
2019-06-10T16:47:35.209Z,99132.05
2019-06-10T16:50:12.224Z,99141.75
2019-06-10T16:52:48.215Z,99139.75
2019-06-10T16:55:25.805Z,99132.07
2019-06-10T16:58:02.802Z,99129.98
2019-06-10T17:00:38.855Z,99126.38
2019-06-10T17:03:14.838Z,99130.10
2019-06-10T17:05:53.098Z,99128.17
2019-06-10T17:08:28.613Z,99117.98
2019-06-10T17:11:04.666Z,99110.66
2019-06-10T17:13:42.244Z,99116.30
2019-06-10T17:16:18.359Z,99112.77
2019-06-10T17:18:54.388Z,99111.77
2019-06-10T17:21:34.419Z,99117.27
2019-06-10T17:24:08.007Z,99110.99
2019-06-10T17:26:44.156Z,99108.42
2019-06-10T17:29:22.793Z,99113.62
2019-06-10T17:31:57.816Z,99107.92
2019-06-10T17:34:34.081Z,99104.89
2019-06-10T17:37:12.357Z,99096.77
2019-06-10T17:39:47.614Z,99096.00
2019-06-10T17:42:28.863Z,99097.93
2019-06-10T17:45:02.529Z,99101.53
2019-06-10T17:47:38.837Z,99095.85
2019-06-10T17:50:14.853Z,99096.11
2019-06-10T17:52:53.245Z,99099.69
2019-06-10T17:55:29.621Z,99086.15
2019-06-10T17:58:06.119Z,99091.88
2019-06-10T18:00:42.303Z,99088.50
2019-06-10T18:03:18.259Z,99081.70
2019-06-10T18:05:55.155Z,99081.61
2019-06-10T18:08:34.605Z,99088.17
2019-06-10T18:11:08.664Z,99081.28
2019-06-10T18:13:44.668Z,99083.54
2019-06-10T18:16:22.786Z,99089.51
2019-06-10T18:18:58.231Z,99085.34
2019-06-10T18:21:36.253Z,99085.77
2019-06-10T18:24:12.765Z,99074.86
2019-06-10T18:26:48.836Z,99086.22
2019-06-10T18:29:25.175Z,99080.94
2019-06-10T18:32:03.274Z,99072.74
2019-06-10T18:34:38.771Z,99083.20
2019-06-10T18:37:14.721Z,99077.72
2019-06-10T18:39:52.213Z,99076.66
2019-06-10T18:42:28.569Z,99071.63
2019-06-10T18:45:09.530Z,99071.63
2019-06-10T18:47:53.107Z,99080.14
2019-06-10T18:50:30.301Z,99089.64
2019-06-10T18:53:07.280Z,99085.91
2019-06-10T18:55:43.729Z,99092.80
2019-06-10T18:58:22.176Z,99085.17
2019-06-10T19:01:03.947Z,99085.92
2019-06-10T19:03:36.673Z,99098.16
2019-06-10T19:06:13.104Z,99097.58
2019-06-10T19:08:49.032Z,99097.83
2019-06-10T19:11:24.987Z,99096.80
2019-06-10T19:14:03.171Z,99097.00
2019-06-10T19:16:38.937Z,99100.16
2019-06-10T19:19:16.975Z,99100.81
2019-06-10T19:22:04.591Z,99100.40
2019-06-10T19:24:34.279Z,99103.95
2019-06-10T19:27:09.047Z,99108.55
2019-06-10T19:29:50.764Z,99101.42
2019-06-10T19:32:22.795Z,99104.80
2019-06-10T19:34:58.860Z,99100.16
2019-06-10T19:37:37.121Z,99100.11
2019-06-10T19:40:13.610Z,99106.41
2019-06-10T19:42:49.597Z,99104.52
2019-06-10T19:45:25.549Z,99100.71
2019-06-10T19:48:03.353Z,99111.20
2019-06-10T19:50:47.600Z,99111.81
2019-06-10T19:53:18.416Z,99111.59
2019-06-10T19:55:54.399Z,99107.80
2019-06-10T19:58:32.365Z,99114.05
2019-06-10T20:01:08.141Z,99114.88
2019-06-10T20:03:46.442Z,99113.41
2019-06-10T20:06:21.899Z,99119.05
2019-06-10T20:08:57.954Z,99113.18
2019-06-10T20:11:34.128Z,99109.81
2019-06-10T20:14:12.698Z,99109.81
2019-06-10T20:16:48.130Z,99111.06
2019-06-10T20:19:25.267Z,99104.30
2019-06-10T20:22:01.222Z,99115.83
2019-06-10T20:24:38.427Z,99118.09
2019-06-10T20:27:14.477Z,99120.39
2019-06-10T20:30:04.647Z,99115.36
2019-06-10T20:32:28.232Z,99124.77
2019-06-10T20:35:05.418Z,99126.39
2019-06-10T20:37:44.253Z,99123.43
2019-06-10T20:40:19.983Z,99131.17
2019-06-10T20:42:55.960Z,99133.66
2019-06-10T20:45:33.237Z,99121.70
2019-06-10T20:48:09.491Z,99122.07
2019-06-10T20:50:47.338Z,99124.55
2019-06-10T20:53:23.460Z,99118.03
2019-06-10T20:55:59.518Z,99114.88
2019-06-10T20:58:35.581Z,99113.59
2019-06-10T21:01:12.547Z,99112.29
2019-06-10T21:03:49.908Z,99113.71
2019-06-10T21:06:27.234Z,99117.86
2019-06-10T21:09:06.406Z,99123.05
2019-06-10T21:11:46.392Z,99125.52
2019-06-10T21:14:22.909Z,99119.83
2019-06-10T21:16:58.630Z,99117.91
2019-06-10T21:19:34.597Z,99125.81
2019-06-10T21:22:12.890Z,99110.48
2019-06-10T21:24:48.786Z,99113.97
2019-06-10T21:27:24.913Z,99104.72
2019-06-10T21:30:03.118Z,99104.86
2019-06-10T21:32:38.666Z,99101.89
2019-06-10T21:35:14.750Z,99103.95
2019-06-10T21:37:51.716Z,99096.20
2019-06-10T21:40:27.756Z,99098.23
2019-06-10T21:43:03.822Z,99098.91
2019-06-10T21:45:42.479Z,99107.39
2019-06-10T21:48:17.475Z,99103.84
2019-06-10T21:50:55.814Z,99110.11
2019-06-10T21:53:31.129Z,99115.76
2019-06-10T21:56:07.085Z,99110.72
2019-06-10T21:58:43.905Z,99114.84
2019-06-10T22:01:22.403Z,99111.69
2019-06-10T22:04:01.034Z,99115.98
2019-06-10T22:06:37.150Z,99108.41
2019-06-10T22:09:13.137Z,99111.73
2019-06-10T22:11:50.073Z,99117.91
2019-06-10T22:14:26.876Z,99113.44
2019-06-10T22:17:03.157Z,99115.22
2019-06-10T22:19:39.810Z,99122.26
2019-06-10T22:22:15.756Z,99120.11
2019-06-10T22:24:53.629Z,99129.20
2019-06-10T22:27:29.410Z,99122.84
2019-06-10T22:30:11.368Z,99122.91
2019-06-10T22:32:47.251Z,99126.17
2019-06-10T22:35:23.441Z,99119.81
2019-06-10T22:37:59.390Z,99124.61
2019-06-10T22:40:35.347Z,99129.75
2019-06-10T22:43:12.928Z,99120.29
2019-06-10T22:45:49.470Z,99120.01
2019-06-10T22:48:25.571Z,99121.22
2019-06-10T22:51:01.534Z,99122.16
2019-06-10T22:53:37.691Z,99129.17
2019-06-10T22:56:13.747Z,99127.00
2019-06-10T22:58:52.706Z,99127.55
2019-06-10T23:01:34.170Z,99126.42
2019-06-10T23:04:05.199Z,99125.77
2019-06-10T23:06:41.149Z,99125.09
2019-06-10T23:09:17.115Z,99111.08
2019-06-10T23:11:54.393Z,99112.09
2019-06-10T23:14:33.061Z,99111.59
2019-06-10T23:17:08.966Z,99123.44
2019-06-10T23:19:45.040Z,99120.44
2019-06-10T23:22:22.005Z,99119.98
2019-06-10T23:24:58.381Z,99119.52
2019-06-10T23:27:34.329Z,99120.89
2019-06-10T23:30:11.961Z,99122.93
2019-06-10T23:32:48.096Z,99122.47
2019-06-10T23:35:24.357Z,99130.09
2019-06-10T23:38:04.834Z,99131.50
2019-06-10T23:40:38.009Z,99120.84
2019-06-10T23:43:13.969Z,99123.91
2019-06-10T23:45:51.118Z,99121.73
2019-06-10T23:48:27.098Z,99116.48
2019-06-10T23:51:04.881Z,99114.98
2019-06-10T23:53:40.763Z,99108.27
2019-06-10T23:56:16.708Z,99108.80
2019-06-10T23:58:55.563Z,99114.38
